Time;durP1;ratioP1;P1;durP2;ratioP2;P2;SDS_P1;SDS_P2;PMS_P1;PMS_P2;Temp;Humidity;BMP_temperature;BMP_pressure;BME280_temperature;BME280_humidity;BME280_pressure;Samples;Min_cycle;Max_cycle;Signal;HPM_P1;HPM_P2
2023/04/12 00:01:19;;;;;;;5.63;2.17;;;;;;;11.24;92.07;100465.78;5046549;28;20099;-64
2023/04/12 00:03:49;;;;;;;8.40;2.67;;;;;;;11.24;92.07;100448.63;5040760;28;20144;-63
2023/04/12 00:06:17;;;;;;;6.78;2.33;;;;;;;11.18;92.60;100447.00;5038831;28;20072;-61
2023/04/12 00:08:45;;;;;;;5.68;2.08;;;;;;;11.15;93.31;100442.13;5049726;28;20049;-63
2023/04/12 00:11:13;;;;;;;8.63;2.55;;;;;;;11.13;93.57;100433.41;5042914;28;20516;-64
2023/04/12 00:13:41;;;;;;;8.27;2.55;;;;;;;11.07;93.95;100429.91;5033978;28;20037;-64
2023/04/12 00:16:09;;;;;;;9.77;2.45;;;;;;;11.00;94.83;100418.50;5032535;28;20053;-63
2023/04/12 00:18:37;;;;;;;5.35;2.10;;;;;;;10.97;96.11;100414.41;5036985;28;20053;-64
2023/04/12 00:21:05;;;;;;;6.93;2.60;;;;;;;10.93;96.53;100409.81;5053548;28;20102;-63
2023/04/12 00:23:32;;;;;;;6.38;2.08;;;;;;;10.89;97.33;100406.81;5040096;28;20060;-65
2023/04/12 00:26:00;;;;;;;9.90;3.00;;;;;;;10.85;98.05;100398.38;5049945;28;20099;-63
2023/04/12 00:28:28;;;;;;;7.40;2.40;;;;;;;10.81;98.61;100391.06;5033185;28;20053;-62
2023/04/12 00:30:56;;;;;;;4.50;2.10;;;;;;;10.87;97.73;100374.41;5043949;28;20037;-62
2023/04/12 00:33:23;;;;;;;6.88;2.60;;;;;;;10.83;97.66;100372.50;5046251;28;20045;-63
2023/04/12 00:35:51;;;;;;;6.35;2.30;;;;;;;10.83;97.72;100364.34;5068388;28;20049;-65
2023/04/12 00:38:19;;;;;;;6.60;2.20;;;;;;;10.81;98.21;100353.72;5037542;28;20089;-64
2023/04/12 00:40:47;;;;;;;7.85;2.47;;;;;;;10.82;97.97;100346.34;5037180;28;20479;-64
2023/04/12 00:43:17;;;;;;;7.05;2.30;;;;;;;10.73;98.58;100335.22;5019177;28;20509;-64
2023/04/12 00:45:46;;;;;;;7.35;2.63;;;;;;;10.67;99.53;100330.91;5037086;28;20073;-65
2023/04/12 00:48:15;;;;;;;7.38;2.50;;;;;;;10.61;99.26;100327.38;5052384;28;20092;-65
2023/04/12 00:50:46;;;;;;;7.88;2.47;;;;;;;10.55;100.00;100320.31;5052543;28;20463;-65
2023/04/12 00:53:14;;;;;;;6.63;2.20;;;;;;;10.55;100.00;100314.88;5037142;28;20111;-64
2023/04/12 00:55:46;;;;;;;8.48;2.60;;;;;;;10.52;100.00;100301.03;5038804;28;20044;-65
2023/04/12 00:58:15;;;;;;;8.30;2.30;;;;;;;10.52;100.00;100299.09;5031708;28;20107;-65
2023/04/12 01:00:49;;;;;;;6.35;2.22;;;;;;;10.44;100.00;100302.44;5036082;28;20128;-66
2023/04/12 01:03:26;;;;;;;6.18;2.28;;;;;;;10.42;100.00;100293.72;5036101;28;20508;-64
2023/04/12 01:06:08;;;;;;;6.85;2.42;;;;;;;10.36;100.00;100283.94;5003457;28;20033;-63
2023/04/12 01:09:20;;;;;;;5.22;2.22;;;;;;;10.34;100.00;100270.59;5052778;28;20421;-63
2023/04/12 01:12:06;;;;;;;4.32;1.90;;;;;;;10.37;100.00;100261.06;5039358;28;20049;-63
2023/04/12 01:14:57;;;;;;;6.07;2.03;;;;;;;10.36;100.00;100256.69;5035635;28;20050;-63
2023/04/12 01:17:29;;;;;;;7.03;2.47;;;;;;;10.38;100.00;100249.06;5044191;28;20473;-63
2023/04/12 01:20:00;;;;;;;5.60;2.20;;;;;;;10.32;100.00;100233.84;5036636;28;20130;-63
2023/04/12 01:22:57;;;;;;;7.38;2.53;;;;;;;10.23;100.00;100228.97;5035643;28;20042;-62
2023/04/12 01:25:59;;;;;;;6.63;2.20;;;;;;;10.12;100.00;100219.19;5034176;28;20049;-64
2023/04/12 01:28:37;;;;;;;8.02;2.53;;;;;;;10.10;100.00;100209.69;5067298;28;20037;-62
2023/04/12 01:31:05;;;;;;;12.50;3.30;;;;;;;10.14;100.00;100200.69;5036233;28;20115;-63
2023/04/12 01:33:36;;;;;;;7.20;2.60;;;;;;;10.17;100.00;100199.31;5055771;28;20041;-64
2023/04/12 01:36:17;;;;;;;5.45;2.10;;;;;;;10.19;100.00;100191.69;5045349;28;20052;-63
2023/04/12 01:38:46;;;;;;;8.00;2.60;;;;;;;10.21;100.00;100184.84;5018687;28;20409;-62
2023/04/12 01:41:14;;;;;;;6.22;2.70;;;;;;;10.23;100.00;100177.22;5018412;28;20124;-64
2023/04/12 01:43:43;;;;;;;5.20;2.13;;;;;;;10.28;100.00;100173.69;5035443;28;20372;-63
2023/04/12 01:46:13;;;;;;;7.50;2.80;;;;;;;10.22;100.00;100163.88;5043563;28;20120;-63
2023/04/12 01:48:44;;;;;;;10.00;2.90;;;;;;;10.17;100.00;100155.75;5047863;28;20075;-63
2023/04/12 01:51:35;;;;;;;10.10;2.95;;;;;;;10.14;100.00;100151.69;5018964;28;20136;-64
2023/04/12 01:54:12;;;;;;;9.65;2.80;;;;;;;10.20;100.00;100150.56;5018445;28;20056;-63
2023/04/12 01:56:43;;;;;;;6.15;2.30;;;;;;;10.27;100.00;100141.25;5042933;28;20073;-62
2023/04/12 01:59:14;;;;;;;7.38;2.47;;;;;;;10.24;100.00;100129.03;5021503;28;20124;-65
2023/04/12 02:01:43;;;;;;;7.88;2.85;;;;;;;10.23;100.00;100122.78;5035728;28;20064;-64
2023/04/12 02:04:11;;;;;;;6.20;2.42;;;;;;;10.27;100.00;100122.19;5018898;28;20049;-63
2023/04/12 02:06:40;;;;;;;6.72;2.33;;;;;;;10.18;100.00;100113.84;5021896;28;20037;-64
2023/04/12 02:09:09;;;;;;;5.80;1.98;;;;;;;10.08;100.00;100103.00;5016015;28;20140;-63
2023/04/12 02:11:37;;;;;;;7.25;2.60;;;;;;;10.06;100.00;100094.31;5036583;28;20382;-64
2023/04/12 02:14:05;;;;;;;8.23;2.63;;;;;;;10.01;100.00;100073.41;5051184;28;20084;-63
2023/04/12 02:16:33;;;;;;;7.95;2.33;;;;;;;10.02;100.00;100075.00;5065951;28;20056;-64
2023/04/12 02:19:01;;;;;;;6.78;2.25;;;;;;;10.04;100.00;100072.81;5045730;28;20124;-64
2023/04/12 02:21:28;;;;;;;5.05;2.03;;;;;;;10.08;100.00;100064.88;5034156;28;20050;-64
2023/04/12 02:23:56;;;;;;;10.32;2.63;;;;;;;10.10;100.00;100068.16;5034142;28;20149;-64
2023/04/12 02:26:24;;;;;;;8.82;2.83;;;;;;;10.11;100.00;100057.00;5050853;28;20119;-63
2023/04/12 02:28:52;;;;;;;5.68;2.10;;;;;;;10.13;100.00;100052.06;5030929;28;20072;-63
2023/04/12 02:31:21;;;;;;;9.02;2.78;;;;;;;10.11;100.00;100048.81;5037696;28;20038;-64
2023/04/12 02:33:50;;;;;;;8.05;2.83;;;;;;;10.11;100.00;100037.94;5048327;28;20054;-64
2023/04/12 02:36:18;;;;;;;7.47;2.60;;;;;;;10.05;100.00;100019.19;5017649;28;20076;-64
2023/04/12 02:38:49;;;;;;;5.28;2.28;;;;;;;10.03;100.00;100023.03;5026281;28;20053;-63
2023/04/12 02:41:19;;;;;;;5.82;2.25;;;;;;;10.05;100.00;100008.31;5043305;28;20054;-63
2023/04/12 02:43:48;;;;;;;6.68;2.50;;;;;;;10.01;100.00;100006.16;5001221;28;20058;-64
2023/04/12 02:46:23;;;;;;;6.93;2.35;;;;;;;9.98;100.00;100008.63;5036758;28;20042;-64
2023/04/12 02:48:56;;;;;;;6.55;2.30;;;;;;;9.99;100.00;99985.78;5001563;28;20057;-64
2023/04/12 02:51:32;;;;;;;8.95;2.60;;;;;;;10.04;100.00;99980.28;5034881;28;20041;-63
2023/04/12 02:54:01;;;;;;;4.32;2.08;;;;;;;10.06;100.00;99980.81;5027348;28;20041;-63
2023/04/12 02:56:38;;;;;;;6.32;2.00;;;;;;;10.05;100.00;99968.28;5025244;28;20131;-63
2023/04/12 02:59:25;;;;;;;6.10;2.38;;;;;;;10.01;100.00;99956.38;5041759;28;20168;-64
2023/04/12 03:02:07;;;;;;;5.47;2.10;;;;;;;9.91;100.00;99954.56;5033575;28;20046;-63
2023/04/12 03:04:38;;;;;;;5.70;2.38;;;;;;;9.87;100.00;99950.78;5033359;28;20490;-64
2023/04/12 03:07:11;;;;;;;6.85;2.63;;;;;;;9.85;100.00;99935.81;5042274;28;20120;-61
2023/04/12 03:09:49;;;;;;;6.43;2.45;;;;;;;9.88;100.00;99925.16;5040671;28;20454;-62
2023/04/12 03:12:20;;;;;;;8.07;2.28;;;;;;;9.92;100.00;99914.53;5034226;28;20045;-62
2023/04/12 03:14:58;;;;;;;3.28;1.70;;;;;;;9.94;100.00;99907.72;5018034;28;20059;-63
2023/04/12 03:17:26;;;;;;;6.25;2.30;;;;;;;9.94;100.00;99909.63;5039279;28;20041;-62
2023/04/12 03:19:57;;;;;;;5.30;2.30;;;;;;;9.98;100.00;99908.78;5052993;28;20098;-64
2023/04/12 03:22:27;;;;;;;7.20;2.00;;;;;;;9.96;100.00;99907.44;5053154;28;20049;-62
2023/04/12 03:24:58;;;;;;;4.65;1.80;;;;;;;9.98;100.00;99903.34;5038880;28;20045;-64
2023/04/12 03:27:26;;;;;;;4.82;1.88;;;;;;;9.98;100.00;99902.50;5018836;28;20053;-62
2023/04/12 03:29:55;;;;;;;4.32;1.80;;;;;;;9.95;100.00;99897.63;5053245;28;20049;-63
2023/04/12 03:32:24;;;;;;;5.32;1.98;;;;;;;9.90;100.00;99894.97;5002940;28;20053;-63
2023/04/12 03:34:52;;;;;;;5.25;2.22;;;;;;;9.85;100.00;99893.09;5033104;28;20057;-64
2023/04/12 03:37:24;;;;;;;6.07;1.95;;;;;;;9.84;100.00;99885.22;5032622;28;20103;-66
2023/04/12 03:39:56;;;;;;;5.47;2.00;;;;;;;9.77;100.00;99875.50;5067298;28;20094;-64
2023/04/12 03:42:26;;;;;;;7.47;2.30;;;;;;;9.74;100.00;99870.63;5032746;28;20041;-62
2023/04/12 03:45:15;;;;;;;4.88;2.00;;;;;;;9.64;100.00;99867.19;5061541;28;20052;-63
2023/04/12 03:47:49;;;;;;;5.38;1.85;;;;;;;9.55;100.00;99856.91;5052835;28;20519;-63
2023/04/12 03:50:19;;;;;;;5.47;2.15;;;;;;;9.54;100.00;99859.91;5035657;28;20057;-59
2023/04/12 03:52:54;;;;;;;6.25;2.10;;;;;;;9.52;100.00;99857.47;5047813;28;20049;-62
2023/04/12 03:55:27;;;;;;;5.50;2.08;;;;;;;9.55;100.00;99848.75;5045334;28;20055;-62
2023/04/12 03:57:56;;;;;;;5.22;1.85;;;;;;;9.59;100.00;99846.28;5033707;28;20216;-63
2023/04/12 04:00:30;;;;;;;4.88;2.03;;;;;;;9.66;100.00;99835.06;5042161;28;20049;-62
2023/04/12 04:03:08;;;;;;;3.70;1.70;;;;;;;9.66;100.00;99827.72;5046388;28;20064;-61
2023/04/12 04:05:44;;;;;;;;;;;;;;;9.65;100.00;99823.38;5038985;28;20056;-64
2023/04/12 04:08:13;;;;;;;3.85;2.03;;;;;;;9.63;100.00;99819.31;5032320;28;19921;-65
2023/04/12 04:10:50;;;;;;;4.07;2.08;;;;;;;9.62;100.00;99818.53;5015883;28;20084;-62
2023/04/12 04:13:19;;;;;;;5.40;2.00;;;;;;;9.60;100.00;99823.44;5031552;28;20052;-64
2023/04/12 04:15:59;;;;;;;3.97;1.92;;;;;;;9.56;100.00;99808.78;5016480;28;20091;-64
2023/04/12 04:18:28;;;;;;;4.78;1.90;;;;;;;9.52;100.00;99803.09;5033363;28;20087;-63
2023/04/12 04:20:57;;;;;;;6.13;2.05;;;;;;;9.44;100.00;99806.44;5039690;28;20455;-64
2023/04/12 04:23:27;;;;;;;3.78;1.77;;;;;;;9.46;100.00;99798.00;5017682;28;20061;-64
2023/04/12 04:25:56;;;;;;;6.38;2.20;;;;;;;9.48;100.00;99784.94;5031982;28;20568;-64
2023/04/12 04:28:25;;;;;;;4.88;1.75;;;;;;;9.51;100.00;99778.91;4997716;28;20049;-64
2023/04/12 04:30:55;;;;;;;4.93;2.10;;;;;;;9.58;100.00;99780.19;5034428;28;20041;-64
2023/04/12 04:33:23;;;;;;;3.78;1.80;;;;;;;9.54;100.00;99779.13;5034630;28;20156;-64
2023/04/12 04:35:55;;;;;;;5.82;2.10;;;;;;;9.49;100.00;99772.94;5050012;28;20048;-64
2023/04/12 04:38:28;;;;;;;4.55;1.58;;;;;;;9.39;100.00;99769.22;5023508;28;20048;-63
2023/04/12 04:41:07;;;;;;;6.00;2.20;;;;;;;9.31;100.00;99771.78;5049758;28;20380;-63
2023/04/12 04:43:59;;;;;;;3.47;1.63;;;;;;;9.32;100.00;99766.03;5038784;28;20041;-66
2023/04/12 04:46:31;;;;;;;6.63;1.73;;;;;;;9.34;100.00;99766.56;5026968;28;20072;-63
2023/04/12 04:49:00;;;;;;;4.78;1.77;;;;;;;9.34;100.00;99766.56;5035779;28;20084;-62
2023/04/12 04:51:27;;;;;;;5.00;2.03;;;;;;;9.38;100.00;99758.66;5032951;28;20604;-62
2023/04/12 04:53:59;;;;;;;5.30;1.95;;;;;;;9.37;100.00;99752.38;5016314;28;20049;-63
2023/04/12 04:56:27;;;;;;;3.75;1.58;;;;;;;9.44;100.00;99757.50;5039033;28;20048;-64
2023/04/12 04:58:55;;;;;;;5.32;2.13;;;;;;;9.44;100.00;99752.06;5034639;28;20049;-63
2023/04/12 05:01:26;;;;;;;6.28;1.88;;;;;;;9.40;100.00;99751.00;5030944;28;20116;-62
2023/04/12 05:03:56;;;;;;;4.25;1.90;;;;;;;9.41;100.00;99747.19;5015401;28;20081;-64
2023/04/12 05:06:26;;;;;;;4.90;2.00;;;;;;;9.36;100.00;99739.09;5037701;28;20044;-63
2023/04/12 05:08:56;;;;;;;4.55;2.00;;;;;;;9.33;100.00;99742.38;5051002;28;20053;-63
2023/04/12 05:11:24;;;;;;;4.15;1.80;;;;;;;9.33;100.00;99734.22;5040162;28;20103;-63
2023/04/12 05:13:53;;;;;;;5.78;2.10;;;;;;;9.37;100.00;99729.84;5015011;28;20073;-64
2023/04/12 05:16:21;;;;;;;6.25;2.38;;;;;;;9.35;100.00;99727.38;5031982;28;20122;-65
2023/04/12 05:18:48;;;;;;;5.88;1.65;;;;;;;9.31;100.00;99731.00;5052038;28;20053;-63
2023/04/12 05:21:16;;;;;;;5.85;2.00;;;;;;;9.34;100.00;99739.38;5055676;28;20486;-64
2023/04/12 05:23:46;;;;;;;3.85;2.00;;;;;;;9.36;100.00;99733.66;5040818;28;20051;-64
2023/04/12 05:26:14;;;;;;;5.43;2.20;;;;;;;9.41;100.00;99730.09;5048749;28;20420;-64
2023/04/12 05:28:47;;;;;;;2.53;1.45;;;;;;;9.53;100.00;99722.34;5038914;28;20053;-63
2023/04/12 05:31:16;;;;;;;6.82;2.28;;;;;;;9.53;100.00;99711.47;5056383;28;20080;-63
2023/04/12 05:33:45;;;;;;;4.97;1.98;;;;;;;9.47;100.00;99712.59;5036202;28;20091;-64
2023/04/12 05:36:12;;;;;;;3.35;1.92;;;;;;;9.36;100.00;99707.28;5033212;28;20049;-64
2023/04/12 05:38:42;;;;;;;5.55;2.40;;;;;;;9.24;100.00;99698.69;5050734;28;20064;-63
2023/04/12 05:41:12;;;;;;;5.13;2.13;;;;;;;9.23;100.00;99707.13;5051377;28;20049;-62
2023/04/12 05:43:40;;;;;;;3.38;2.20;;;;;;;9.22;100.00;99717.19;4336999;28;10000475;-65
2023/04/12 05:46:10;;;;;;;4.50;2.00;;;;;;;9.25;100.00;99711.19;5036126;28;20063;-66
2023/04/12 05:48:38;;;;;;;3.97;2.10;;;;;;;9.29;100.00;99706.81;5050891;28;20769;-63
2023/04/12 05:51:06;;;;;;;7.35;2.80;;;;;;;9.34;100.00;99705.94;5004580;28;20057;-63
2023/04/12 05:53:33;;;;;;;5.47;2.17;;;;;;;9.37;100.00;99697.22;5030266;28;20501;-65
2023/04/12 05:56:04;;;;;;;6.82;2.13;;;;;;;9.35;100.00;99697.47;5014458;28;20053;-65
2023/04/12 05:58:32;;;;;;;4.05;2.00;;;;;;;9.29;100.00;99695.94;5067194;28;20094;-65
2023/04/12 06:01:01;;;;;;;5.63;2.08;;;;;;;9.29;100.00;99704.09;5050748;28;20056;-62
2023/04/12 06:03:29;;;;;;;4.50;2.35;;;;;;;9.35;100.00;99699.41;5033231;28;20068;-64
2023/04/12 06:06:05;;;;;;;2.85;1.27;;;;;;;9.43;100.00;99706.09;5063854;28;20049;-65
2023/04/12 06:08:33;;;;;;;4.80;1.77;;;;;;;9.55;100.00;99698.41;5046250;28;20114;-64
2023/04/12 06:11:04;;;;;;;5.20;2.10;;;;;;;9.57;100.00;99698.88;5047475;28;20057;-64
2023/04/12 06:13:32;;;;;;;6.05;2.00;;;;;;;9.66;100.00;99694.44;5003536;28;20042;-63
2023/04/12 06:16:00;;;;;;;2.90;1.83;;;;;;;9.66;100.00;99699.06;5045330;28;20045;-64
2023/04/12 06:18:27;;;;;;;3.13;1.77;;;;;;;9.65;100.00;99694.75;5036921;28;20323;-64
2023/04/12 06:20:56;;;;;;;3.25;1.67;;;;;;;9.63;100.00;99695.03;5047391;28;20072;-61
2023/04/12 06:23:23;;;;;;;5.30;1.70;;;;;;;9.70;100.00;99687.34;5030579;28;20049;-61
2023/04/12 06:25:52;;;;;;;3.33;1.80;;;;;;;9.64;100.00;99685.75;5030655;28;20407;-62
2023/04/12 06:28:20;;;;;;;3.20;1.63;;;;;;;9.62;100.00;99690.69;5018030;28;20434;-63
2023/04/12 06:30:51;;;;;;;5.00;1.65;;;;;;;9.68;100.00;99692.25;5048575;28;20408;-65
2023/04/12 06:33:21;;;;;;;4.72;1.73;;;;;;;9.68;100.00;99686.81;5021068;28;20499;-61
2023/04/12 06:35:50;;;;;;;2.95;1.23;;;;;;;9.69;100.00;99685.72;5049956;28;20071;-64
2023/04/12 06:38:18;;;;;;;4.03;1.90;;;;;;;9.71;100.00;99674.53;5046492;28;20060;-64
2023/04/12 06:40:46;;;;;;;4.80;1.90;;;;;;;9.58;100.00;99678.78;5045883;28;20053;-64
2023/04/12 06:43:21;;;;;;;4.43;1.80;;;;;;;9.51;100.00;99679.13;5025656;28;20440;-63
2023/04/12 06:45:49;;;;;;;5.00;2.00;;;;;;;9.49;100.00;99672.34;5031678;28;20081;-63
2023/04/12 06:48:17;;;;;;;5.75;1.80;;;;;;;9.48;100.00;99676.97;5029478;28;20127;-65
2023/04/12 06:50:45;;;;;;;7.00;2.70;;;;;;;9.48;100.00;99681.63;5047559;28;20461;-61
2023/04/12 06:53:12;;;;;;;4.38;2.20;;;;;;;9.47;100.00;99677.25;5051081;28;20168;-62
2023/04/12 06:55:40;;;;;;;3.80;1.70;;;;;;;9.49;100.00;99675.06;5034635;28;20045;-61
2023/04/12 06:58:09;;;;;;;3.47;2.08;;;;;;;9.58;100.00;99670.63;5067269;28;20514;-62
2023/04/12 07:00:36;;;;;;;2.38;1.58;;;;;;;9.68;100.00;99664.25;5044264;28;20083;-62
2023/04/12 07:03:04;;;;;;;4.20;1.80;;;;;;;9.73;100.00;99681.31;5050049;28;20076;-61
2023/04/12 07:05:32;;;;;;;2.25;1.50;;;;;;;9.73;100.00;99694.09;5048074;28;20106;-63
2023/04/12 07:08:00;;;;;;;5.10;1.90;;;;;;;9.65;100.00;99686.59;5034618;28;20497;-63
2023/04/12 07:10:27;;;;;;;5.38;1.80;;;;;;;9.59;100.00;99685.81;5029059;28;20120;-66
2023/04/12 07:12:57;;;;;;;4.07;1.90;;;;;;;9.59;100.00;99693.97;5037070;28;20448;-63
2023/04/12 07:15:25;;;;;;;3.90;2.03;;;;;;;9.60;100.00;99690.19;5038526;28;20128;-64
2023/04/12 07:17:52;;;;;;;3.42;1.80;;;;;;;9.62;100.00;99693.41;5034511;28;20041;-65
2023/04/12 07:20:20;;;;;;;4.70;1.90;;;;;;;9.63;100.00;99689.59;5033689;28;20099;-61
2023/04/12 07:22:48;;;;;;;6.78;2.28;;;;;;;9.64;100.00;99691.19;5033788;28;20468;-66
2023/04/12 07:25:16;;;;;;;5.47;2.40;;;;;;;9.65;100.00;99692.84;5033725;28;20053;-61
2023/04/12 07:27:43;;;;;;;4.28;2.10;;;;;;;9.66;100.00;99693.63;5032627;28;20049;-60
2023/04/12 07:30:12;;;;;;;5.80;2.15;;;;;;;9.64;100.00;99696.63;5034477;28;20049;-62
2023/04/12 07:32:39;;;;;;;5.30;2.10;;;;;;;9.64;100.00;99691.19;5033757;28;20045;-65
2023/04/12 07:35:08;;;;;;;6.93;2.22;;;;;;;9.67;100.00;99695.25;5044146;28;20103;-64
2023/04/12 07:37:36;;;;;;;4.90;2.15;;;;;;;9.67;100.00;99685.19;5066877;28;20049;-65
2023/04/12 07:40:04;;;;;;;7.22;2.30;;;;;;;9.68;100.00;99692.25;5053311;28;20048;-64
2023/04/12 07:42:32;;;;;;;5.22;2.50;;;;;;;9.67;100.00;99685.19;5049645;28;20129;-64
2023/04/12 07:45:00;;;;;;;4.38;2.20;;;;;;;9.69;100.00;99693.88;5021779;28;20132;-64
2023/04/12 07:47:28;;;;;;;6.68;2.50;;;;;;;9.71;100.00;99688.94;5036132;28;20049;-64
2023/04/12 07:49:57;;;;;;;8.25;2.75;;;;;;;9.73;100.00;99678.59;5036150;28;20060;-65
2023/04/12 07:52:25;;;;;;;5.13;2.28;;;;;;;9.75;100.00;99670.94;5036740;28;20404;-62
2023/04/12 07:54:53;;;;;;;8.70;2.80;;;;;;;9.76;100.00;99675.28;5039707;28;20107;-62
2023/04/12 07:57:22;;;;;;;5.20;2.45;;;;;;;9.80;100.00;99687.19;5038665;28;20041;-63
2023/04/12 07:59:50;;;;;;;7.45;2.60;;;;;;;9.81;100.00;99680.69;5041493;28;20053;-62
2023/04/12 08:02:23;;;;;;;7.53;2.78;;;;;;;9.82;100.00;99676.84;5044921;28;20088;-65
2023/04/12 08:04:52;;;;;;;7.80;2.60;;;;;;;9.85;100.00;99682.81;5040165;28;20456;-65
2023/04/12 08:07:25;;;;;;;8.45;2.70;;;;;;;9.83;100.00;99677.66;5031447;28;20037;-66
2023/04/12 08:09:53;;;;;;;7.25;2.40;;;;;;;9.82;100.00;99668.69;5051350;28;20441;-66
2023/04/12 08:12:21;;;;;;;7.80;2.53;;;;;;;9.86;100.00;99671.66;5031781;28;20831;-66
2023/04/12 08:14:48;;;;;;;11.95;2.65;;;;;;;9.89;100.00;99668.34;5029544;28;20123;-65
2023/04/12 08:17:16;;;;;;;6.60;2.50;;;;;;;9.92;100.00;99673.19;5006925;28;20064;-65
2023/04/12 08:19:44;;;;;;;7.53;3.00;;;;;;;9.93;100.00;99677.53;5050458;28;20053;-65
2023/04/12 08:22:11;;;;;;;11.07;3.28;;;;;;;9.93;100.00;99674.81;5048696;28;20386;-65
2023/04/12 08:24:40;;;;;;;9.95;3.10;;;;;;;9.93;100.00;99684.88;5049933;28;20366;-64
2023/04/12 08:27:08;;;;;;;9.77;3.08;;;;;;;9.93;100.00;99684.88;5033707;28;20042;-66
2023/04/12 08:29:35;;;;;;;10.93;3.28;;;;;;;9.90;100.00;99688.19;5032850;28;20128;-65
2023/04/12 08:32:04;;;;;;;13.60;3.88;;;;;;;9.87;100.00;99695.03;5032215;28;20080;-64
2023/04/12 08:34:32;;;;;;;14.02;4.00;;;;;;;9.86;100.00;99687.13;5048692;28;20433;-66
2023/04/12 08:36:59;;;;;;;12.07;3.75;;;;;;;9.84;100.00;99692.06;5048065;28;20049;-65
2023/04/12 08:39:27;;;;;;;10.73;3.63;;;;;;;9.81;100.00;99691.56;5035365;28;20136;-64
2023/04/12 08:41:56;;;;;;;12.82;3.40;;;;;;;9.84;100.00;99679.28;5039134;28;20544;-65
2023/04/12 08:44:37;;;;;;;14.48;3.47;;;;;;;9.86;100.00;99676.25;5032276;28;20073;-64
2023/04/12 08:47:06;;;;;;;12.20;3.28;;;;;;;9.90;100.00;99682.75;5033404;28;20125;-64
2023/04/12 08:49:34;;;;;;;14.48;3.92;;;;;;;9.95;100.00;99696.28;5032842;28;20064;-65
2023/04/12 08:52:04;;;;;;;10.90;3.50;;;;;;;9.98;100.00;99677.47;5033757;28;20041;-63
2023/04/12 08:54:33;;;;;;;10.98;3.20;;;;;;;10.03;100.00;99673.88;5036796;28;20077;-63
2023/04/12 08:57:03;;;;;;;11.18;3.20;;;;;;;10.09;100.00;99672.69;5035954;28;20117;-64
2023/04/12 08:59:33;;;;;;;11.80;3.45;;;;;;;10.14;100.00;99671.81;5036314;28;20489;-64
2023/04/12 09:02:00;;;;;;;9.20;3.10;;;;;;;10.17;100.00;99672.06;5035828;28;20100;-65
2023/04/12 09:04:28;;;;;;;14.77;3.67;;;;;;;10.22;100.00;99674.69;5019476;28;20057;-64
2023/04/12 09:06:56;;;;;;;13.60;4.05;;;;;;;10.27;100.00;99664.81;5035759;28;20124;-64
2023/04/12 09:09:43;;;;;;;14.98;4.30;;;;;;;10.26;100.00;99661.28;5037038;28;20061;-64
2023/04/12 09:12:12;;;;;;;11.40;3.60;;;;;;;10.24;100.00;99669.75;5018642;28;20076;-63
2023/04/12 09:14:43;;;;;;;9.65;3.25;;;;;;;10.30;100.00;99669.72;5034899;28;20059;-64
2023/04/12 09:17:32;;;;;;;11.52;3.85;;;;;;;10.39;100.00;99662.50;5071286;28;20045;-65
2023/04/12 09:20:00;;;;;;;12.88;4.25;;;;;;;10.45;100.00;99658.59;5039083;28;20379;-65
2023/04/12 09:22:35;;;;;;;11.18;3.55;;;;;;;10.45;100.00;99650.44;5019525;28;20053;-65
2023/04/12 09:25:03;;;;;;;12.07;3.65;;;;;;;10.48;100.00;99651.75;5036698;28;20493;-66
2023/04/12 09:27:48;;;;;;;14.05;3.60;;;;;;;10.49;100.00;99651.47;5048872;28;20119;-64
2023/04/12 09:30:17;;;;;;;14.00;4.25;;;;;;;10.53;100.00;99652.47;5066672;28;20058;-63
2023/04/12 09:32:48;;;;;;;18.92;4.68;;;;;;;10.56;100.00;99651.06;5048370;28;20152;-65
2023/04/12 09:35:16;;;;;;;24.65;4.63;;;;;;;10.60;100.00;99650.19;5035569;28;20054;-64
2023/04/12 09:37:44;;;;;;;17.58;4.43;;;;;;;10.58;100.00;99655.13;5036534;28;20045;-65
2023/04/12 09:40:12;;;;;;;15.55;4.50;;;;;;;10.60;100.00;99657.53;5036062;28;20042;-65
2023/04/12 09:42:52;;;;;;;16.20;4.70;;;;;;;10.64;100.00;99653.13;5034996;28;20045;-65
2023/04/12 09:45:24;;;;;;;18.23;5.03;;;;;;;10.69;100.00;99649.50;5034913;28;20065;-65
2023/04/12 09:47:53;;;;;;;19.05;4.68;;;;;;;10.71;100.00;99641.84;5035339;28;20477;-65
2023/04/12 09:50:24;;;;;;;22.42;5.32;;;;;;;10.64;100.00;99637.59;5036235;28;20685;-66
2023/04/12 09:52:53;;;;;;;21.27;4.85;;;;;;;10.66;100.00;99638.09;5054702;28;20088;-66
2023/04/12 09:55:22;;;;;;;19.05;5.18;;;;;;;10.64;100.00;99634.88;5044803;28;20057;-64
2023/04/12 09:57:54;;;;;;;21.30;5.22;;;;;;;10.64;100.00;99639.50;5044127;28;20033;-66
2023/04/12 10:00:26;;;;;;;17.27;5.22;;;;;;;10.63;100.00;99635.16;5039832;28;20054;-65
2023/04/12 10:02:54;;;;;;;20.67;4.38;;;;;;;10.62;100.00;99633.53;5037491;28;20049;-65
2023/04/12 10:05:24;;;;;;;19.65;4.82;;;;;;;10.68;100.00;99623.38;5035602;28;20132;-64
2023/04/12 10:07:55;;;;;;;13.48;4.25;;;;;;;10.75;100.00;99626.50;5035379;28;20046;-65
2023/04/12 10:10:27;;;;;;;14.20;4.57;;;;;;;10.81;100.00;99625.34;5051746;28;20091;-64
2023/04/12 10:12:55;;;;;;;15.38;4.70;;;;;;;10.87;100.00;99630.41;5017802;28;20489;-65
2023/04/12 10:15:24;;;;;;;20.95;5.22;;;;;;;10.92;100.00;99631.41;5033761;28;20049;-64
2023/04/12 10:17:57;;;;;;;19.67;5.40;;;;;;;10.89;100.00;99616.47;5034336;28;20404;-65
2023/04/12 10:20:25;;;;;;;20.55;5.05;;;;;;;10.92;100.00;99615.88;5033987;28;20481;-65
2023/04/12 10:22:58;;;;;;;19.13;5.20;;;;;;;10.89;98.62;99616.47;5034912;28;20042;-64
2023/04/12 10:25:29;;;;;;;16.92;4.75;;;;;;;10.87;97.40;99618.66;4675617;28;10000098;-66
2023/04/12 10:28:16;;;;;;;21.77;4.68;;;;;;;10.85;97.59;99629.88;5050225;28;20056;-65
2023/04/12 10:30:46;;;;;;;15.85;4.60;;;;;;;10.85;98.71;99634.53;5037570;28;20042;-65
2023/04/12 10:33:16;;;;;;;15.98;5.03;;;;;;;10.86;99.64;99638.88;5013868;28;20421;-65
2023/04/12 10:35:59;;;;;;;18.25;4.47;;;;;;;10.84;97.53;99635.63;5041839;28;20048;-65
2023/04/12 10:38:31;;;;;;;12.70;4.07;;;;;;;10.82;98.04;99627.78;5050850;28;20070;-66
2023/04/12 10:41:15;;;;;;;19.25;4.80;;;;;;;10.84;97.89;99627.44;5037150;28;20077;-65
2023/04/12 10:43:43;;;;;;;19.52;5.10;;;;;;;10.87;97.59;99626.84;5030530;28;20065;-65
2023/04/12 10:46:39;;;;;;;19.42;4.60;;;;;;;10.94;98.01;99629.19;5041832;28;20056;-65
2023/04/12 10:49:12;;;;;;;15.45;4.47;;;;;;;10.99;96.82;99632.66;5048154;28;20087;-66
2023/04/12 10:51:59;;;;;;;18.13;5.28;;;;;;;11.05;96.34;99636.09;5030519;28;20085;-65
2023/04/12 10:54:30;;;;;;;16.23;4.65;;;;;;;11.06;94.44;99635.78;5031427;28;20099;-65
2023/04/12 10:56:58;;;;;;;22.17;5.07;;;;;;;11.07;93.91;99637.41;5041565;28;20106;-66
2023/04/12 10:59:56;;;;;;;16.88;4.68;;;;;;;11.08;93.49;99630.03;5014880;28;20072;-65
2023/04/12 11:02:24;;;;;;;23.85;5.18;;;;;;;11.09;91.87;99637.91;5013692;28;20050;-66
2023/04/12 11:05:13;;;;;;;16.17;4.95;;;;;;;11.17;91.01;99654.69;5038688;28;20051;-65
2023/04/12 11:08:00;;;;;;;19.70;4.63;;;;;;;11.23;88.62;99650.75;5013784;28;20057;-64
2023/04/12 11:10:49;;;;;;;20.95;4.60;;;;;;;11.20;81.48;99643.16;5052566;28;20045;-63
2023/04/12 11:13:25;;;;;;;21.13;4.70;;;;;;;11.17;82.00;99654.69;5018288;28;20050;-65
2023/04/12 11:15:56;;;;;;;14.45;4.38;;;;;;;11.12;80.95;99652.06;5033049;28;20049;-65
2023/04/12 11:18:25;;;;;;;18.23;4.60;;;;;;;11.12;81.59;99647.41;5016500;28;20041;-65
2023/04/12 11:20:53;;;;;;;18.73;5.07;;;;;;;11.09;82.21;99648.81;5032792;28;20041;-65
2023/04/12 11:23:22;;;;;;;15.45;4.68;;;;;;;11.09;82.89;99654.25;5033235;28;20088;-65
2023/04/12 11:25:53;;;;;;;17.95;4.55;;;;;;;11.07;83.61;99650.22;5032775;28;20053;-65
2023/04/12 11:28:22;;;;;;;16.30;4.10;;;;;;;11.08;84.59;99651.81;5016894;28;20049;-65
2023/04/12 11:30:56;;;;;;;16.73;3.70;;;;;;;11.07;83.10;99651.03;5031822;28;20457;-65
2023/04/12 11:33:38;;;;;;;17.85;4.20;;;;;;;11.08;82.42;99647.19;5032801;28;20783;-65
2023/04/12 11:36:13;;;;;;;19.95;4.85;;;;;;;11.07;82.05;99661.94;5032941;28;20436;-66
2023/04/12 11:38:42;;;;;;;22.92;5.00;;;;;;;11.05;82.11;99663.34;5033342;28;20041;-65
2023/04/12 11:41:10;;;;;;;16.30;3.92;;;;;;;11.03;82.47;99655.44;5032262;28;20080;-65
2023/04/12 11:43:38;;;;;;;21.05;4.75;;;;;;;11.01;84.43;99660.38;5049255;28;20050;-64
2023/04/12 11:46:06;;;;;;;20.33;4.88;;;;;;;10.99;87.37;99654.44;5066624;28;20497;-64